Flight Track Log - Related Links

Times and Time Zones

All times are in EDT time to prevent confusion due to time zone crossing. See the QLK377D flight status page for this flight to view local times or setup timezone preferences in your user account.

Time Position Orientation Groundspeed Altitude Reporting Facility
EDT Latitude Longitude Course Direction KTS MPH feet Rate Location/Type
Mon 10:21:57 PM -25.3690 152.8378 217° Southwest 11,000  Level Aus ATC (Calculated)
Mon 10:22:50 PM -25.3690 152.8378 217° Southwest 11,000 -2,800 Level Aus ATC (Calculated)
Mon 10:23:27 PM -25.4081 152.8048 218° Southwest 222 255 6,800 -1,000 Descending Aus ATC (RADAR)
Mon 10:24:32 PM -25.4653 152.7555 218° Southwest 238 274 9,300 2,229 Climbing Aus ATC (RADAR)
Mon 10:25:12 PM -25.5028 152.7241 217° Southwest 250 288 10,700 1,920 Climbing Aus ATC (RADAR)
Mon 10:26:12 PM -25.5763 152.7090 191° South 290 334 12,500 1,843 Climbing Aus ATC (RADAR)
Mon 10:27:32 PM -25.6819 152.7173 176° South 288 331 15,000 1,500 Climbing Aus ATC (RADAR)
Mon 10:27:52 PM -25.7091 152.7188 177° South 292 336 15,000  Level Aus ATC (RADAR)
Mon 10:28:27 PM -25.7563 152.7195 179° South 290 334 15,000  Level Aus ATC (RADAR)
Mon 10:29:27 PM -25.8321 152.7212 179° South 269 310 15,000  Level Aus ATC (RADAR)
Mon 10:30:02 PM -25.8735 152.7229 178° South 258 297 15,000  Level Aus ATC (RADAR)
Mon 10:31:08 PM -25.9481 152.7259 178° South 245 282 15,000  Level Aus ATC (RADAR)
Mon 10:33:01 PM -26.0762 152.7322 177° South 242 278 15,000  Level Aus ATC (RADAR)
Mon 10:33:16 PM -26.0931 152.7342 174° South 243 280 15,000  Level Aus ATC (RADAR)
Mon 10:33:56 PM -26.1380 152.7356 178° South 241 277 15,000  Level Aus ATC (RADAR)
Mon 10:34:46 PM -26.1939 152.7375 178° South 240 276 15,000  Level Aus ATC (RADAR)
Mon 10:35:21 PM -26.2327 152.7388 178° South 239 275 15,000  Level Aus ATC (RADAR)
Mon 10:36:16 PM -26.2945 152.7419 177° South 243 280 15,000  Level Aus ATC (RADAR)
Mon 10:37:31 PM -26.3806 152.7469 177° South 249 287 15,000  Level Aus ATC (RADAR)
Mon 10:37:46 PM -26.3978 152.7476 178° South 249 287 15,000  Level Aus ATC (RADAR)
Mon 10:38:26 PM -26.4443 152.7480 180° South 249 287 15,000  Level Aus ATC (RADAR)
Mon 10:39:26 PM -26.5133 152.7514 177° South 248 285 15,000  Level Aus ATC (RADAR)
Mon 10:40:01 PM -26.5540 152.7534 177° South 249 287 15,000  Level Aus ATC (RADAR)
Mon 10:40:56 PM -26.6182 152.7561 178° South 250 288 15,000 -667 Level Aus ATC (RADAR)
Mon 10:42:16 PM -26.7103 152.7600 178° South 244 281 13,500 -1,210 Descending Aus ATC (RADAR)
Mon 10:42:55 PM -26.7578 152.7656 174° South 258 297 12,600 -1,333 Descending Aus ATC (RADAR)
Mon 10:43:10 PM -26.7757 152.7754 154° Southeast 272 313 12,300 -1,560 Descending Aus ATC (RADAR)
Mon 10:43:45 PM -26.8195 152.8042 150° Southeast 304 350 11,300 -1,624 Descending Aus ATC (RADAR)
Mon 10:44:35 PM -26.8804 152.8416 151° Southeast 292 336 10,000 -1,482 Descending Aus ATC (RADAR)
Mon 10:45:10 PM -26.9200 152.8666 151° Southeast 276 318 9,200 -1,380 Descending Aus ATC (RADAR)
Mon 10:46:15 PM -26.9905 152.9092 152° Southeast 258 297 7,700 -1,313 Descending Aus ATC (RADAR)
Mon 10:47:50 PM -27.0894 152.9701 151° Southeast 249 287 5,700 -1,252 Descending Aus ATC (RADAR)
Mon 10:48:10 PM -27.1085 152.9821 151° Southeast 238 274 5,300 -982 Descending Aus ATC (RADAR)
Mon 10:48:45 PM -27.1390 153.0018 150° Southeast 215 247 4,800 -1,067 Descending Aus ATC (RADAR)
Mon 10:49:40 PM -27.1867 153.0313 151° Southeast 207 238 3,700 -1,213 Descending Aus ATC (RADAR)
Mon 10:50:14 PM -27.2103 153.0584 134° Southeast 200 230 3,000 -424 Descending Aus ATC (RADAR)
Mon 10:51:19 PM -27.2513 153.1075 133° Southeast 197 227 3,000 -542 Level Aus ATC (RADAR)
Mon 10:52:49 PM -27.3029 153.1654 135° Southeast 149 171 1,600 -971 Descending Aus ATC (RADAR)
Mon 10:53:04 PM -27.3118 153.1683 164° South 138 159 1,300 -840 Descending Aus ATC (RADAR)
Mon 10:53:39 PM -27.3305 153.1611 199° South 120 138 900 -568 Descending Aus ATC (RADAR)
Mon 10:54:39 PM -27.3587 153.1445 208° Southwest 113 130 400 -505 Descending Aus ATC (RADAR)
Mon 10:55:14 PM -27.3749 153.1339 210° Southwest 117 135 100 -514 Descending Aus ATC (RADAR)

Login

Don't have an account? Register now (free) for customized features, flight alerts, and more!